sensor_id;sensor_type;location;lat;lon;timestamp;pressure;altitude;pressure_sealevel;temperature;humidity
23261;BME280;11799;47.740;-3.390;2023-11-19T00:02:07;101677.00;;;13.80;100.00
23261;BME280;11799;47.740;-3.390;2023-11-19T00:04:36;101681.94;;;13.73;100.00
23261;BME280;11799;47.740;-3.390;2023-11-19T00:07:03;101687.25;;;13.73;100.00
23261;BME280;11799;47.740;-3.390;2023-11-19T00:09:29;101679.41;;;13.72;100.00
23261;BME280;11799;47.740;-3.390;2023-11-19T00:11:55;101676.97;;;13.69;100.00
23261;BME280;11799;47.740;-3.390;2023-11-19T00:14:21;101682.28;;;13.69;100.00
23261;BME280;11799;47.740;-3.390;2023-11-19T00:16:46;101684.94;;;13.69;100.00
23261;BME280;11799;47.740;-3.390;2023-11-19T00:19:12;101685.91;;;13.68;100.00
23261;BME280;11799;47.740;-3.390;2023-11-19T00:21:37;101675.78;;;13.73;100.00
23261;BME280;11799;47.740;-3.390;2023-11-19T00:24:03;101676.97;;;13.69;100.00
23261;BME280;11799;47.740;-3.390;2023-11-19T00:26:29;101692.69;;;13.72;100.00
23261;BME280;11799;47.740;-3.390;2023-11-19T00:28:56;101682.06;;;13.72;100.00
23261;BME280;11799;47.740;-3.390;2023-11-19T00:31:22;101674.44;;;13.67;100.00
23261;BME280;11799;47.740;-3.390;2023-11-19T00:33:48;101685.19;;;13.66;100.00
23261;BME280;11799;47.740;-3.390;2023-11-19T00:36:13;101680.00;;;13.64;100.00
23261;BME280;11799;47.740;-3.390;2023-11-19T00:38:39;101671.91;;;13.66;100.00
23261;BME280;11799;47.740;-3.390;2023-11-19T00:41:04;101668.53;;;13.64;100.00
23261;BME280;11799;47.740;-3.390;2023-11-19T00:43:30;101666.00;;;13.62;100.00
23261;BME280;11799;47.740;-3.390;2023-11-19T00:45:55;101660.81;;;13.61;100.00
23261;BME280;11799;47.740;-3.390;2023-11-19T00:48:21;101661.75;;;13.60;100.00
23261;BME280;11799;47.740;-3.390;2023-11-19T00:50:46;101663.69;;;13.58;100.00
23261;BME280;11799;47.740;-3.390;2023-11-19T00:53:12;101661.88;;;13.58;100.00
23261;BME280;11799;47.740;-3.390;2023-11-19T00:55:37;101664.66;;;13.57;100.00
23261;BME280;11799;47.740;-3.390;2023-11-19T00:58:03;101669.13;;;13.56;100.00
23261;BME280;11799;47.740;-3.390;2023-11-19T01:00:28;101668.03;;;13.59;100.00
23261;BME280;11799;47.740;-3.390;2023-11-19T01:02:54;101660.91;;;13.59;100.00
23261;BME280;11799;47.740;-3.390;2023-11-19T01:05:20;101661.38;;;13.53;100.00
23261;BME280;11799;47.740;-3.390;2023-11-19T01:07:48;101660.53;;;13.52;100.00
23261;BME280;11799;47.740;-3.390;2023-11-19T01:10:13;101662.25;;;13.53;100.00
23261;BME280;11799;47.740;-3.390;2023-11-19T01:12:41;101656.09;;;13.53;100.00
23261;BME280;11799;47.740;-3.390;2023-11-19T01:15:06;101653.53;;;13.51;100.00
23261;BME280;11799;47.740;-3.390;2023-11-19T01:17:33;101662.25;;;13.53;100.00
23261;BME280;11799;47.740;-3.390;2023-11-19T01:19:59;101650.91;;;13.51;100.00
23261;BME280;11799;47.740;-3.390;2023-11-19T01:22:24;101649.19;;;13.50;100.00
23261;BME280;11799;47.740;-3.390;2023-11-19T01:24:50;101649.94;;;13.52;100.00
23261;BME280;11799;47.740;-3.390;2023-11-19T01:27:17;101656.19;;;13.51;100.00
23261;BME280;11799;47.740;-3.390;2023-11-19T01:29:43;101656.56;;;13.47;100.00
23261;BME280;11799;47.740;-3.390;2023-11-19T01:32:08;101659.09;;;13.48;100.00
23261;BME280;11799;47.740;-3.390;2023-11-19T01:34:34;101652.09;;;13.47;100.00
23261;BME280;11799;47.740;-3.390;2023-11-19T01:36:59;101651.47;;;13.44;100.00
23261;BME280;11799;47.740;-3.390;2023-11-19T01:39:24;101642.91;;;13.40;100.00
23261;BME280;11799;47.740;-3.390;2023-11-19T01:41:50;101643.03;;;13.39;100.00
23261;BME280;11799;47.740;-3.390;2023-11-19T01:44:16;101649.06;;;13.41;100.00
23261;BME280;11799;47.740;-3.390;2023-11-19T01:46:44;101644.59;;;13.41;100.00
23261;BME280;11799;47.740;-3.390;2023-11-19T01:49:10;101628.66;;;13.30;100.00
23261;BME280;11799;47.740;-3.390;2023-11-19T01:51:38;101656.41;;;13.37;100.00
23261;BME280;11799;47.740;-3.390;2023-11-19T01:54:04;101633.59;;;13.35;100.00
23261;BME280;11799;47.740;-3.390;2023-11-19T01:56:30;101646.88;;;13.35;100.00
23261;BME280;11799;47.740;-3.390;2023-11-19T01:58:57;101642.28;;;13.37;100.00
23261;BME280;11799;47.740;-3.390;2023-11-19T02:01:23;101643.25;;;13.36;100.00
23261;BME280;11799;47.740;-3.390;2023-11-19T02:03:49;101644.00;;;13.38;100.00
23261;BME280;11799;47.740;-3.390;2023-11-19T02:06:14;101633.59;;;13.35;100.00
23261;BME280;11799;47.740;-3.390;2023-11-19T02:08:40;101635.41;;;13.34;100.00
23261;BME280;11799;47.740;-3.390;2023-11-19T02:11:06;101636.25;;;13.35;100.00
23261;BME280;11799;47.740;-3.390;2023-11-19T02:13:37;101636.25;;;13.35;100.00
23261;BME280;11799;47.740;-3.390;2023-11-19T02:16:03;101636.63;;;13.30;100.00
23261;BME280;11799;47.740;-3.390;2023-11-19T02:18:29;101635.31;;;13.36;100.00
23261;BME280;11799;47.740;-3.390;2023-11-19T02:20:56;101638.19;;;13.33;100.00
23261;BME280;11799;47.740;-3.390;2023-11-19T02:23:22;101626.50;;;13.24;100.00
23261;BME280;11799;47.740;-3.390;2023-11-19T02:26:02;101644.00;;;13.27;100.00
23261;BME280;11799;47.740;-3.390;2023-11-19T02:28:32;101635.53;;;13.21;100.00
23261;BME280;11799;47.740;-3.390;2023-11-19T02:30:58;101638.06;;;13.23;100.00
23261;BME280;11799;47.740;-3.390;2023-11-19T02:33:24;101635.31;;;13.25;100.00
23261;BME280;11799;47.740;-3.390;2023-11-19T02:35:50;101638.06;;;13.23;100.00
23261;BME280;11799;47.740;-3.390;2023-11-19T02:38:16;101650.50;;;13.23;100.00
23261;BME280;11799;47.740;-3.390;2023-11-19T02:40:42;101645.28;;;13.21;100.00
23261;BME280;11799;47.740;-3.390;2023-11-19T02:43:08;101639.25;;;13.19;100.00
23261;BME280;11799;47.740;-3.390;2023-11-19T02:45:34;101639.16;;;13.20;100.00
23261;BME280;11799;47.740;-3.390;2023-11-19T02:47:59;101639.50;;;13.16;100.00
23261;BME280;11799;47.740;-3.390;2023-11-19T02:50:28;101631.53;;;13.16;100.00
23261;BME280;11799;47.740;-3.390;2023-11-19T02:52:55;101635.13;;;13.15;100.00
23261;BME280;11799;47.740;-3.390;2023-11-19T02:55:24;101634.19;;;13.16;100.00
23261;BME280;11799;47.740;-3.390;2023-11-19T02:57:51;101631.00;;;13.11;100.00
23261;BME280;11799;47.740;-3.390;2023-11-19T03:00:20;101620.63;;;13.08;100.00
23261;BME280;11799;47.740;-3.390;2023-11-19T03:02:49;101644.03;;;13.14;100.00
23261;BME280;11799;47.740;-3.390;2023-11-19T03:05:24;101626.44;;;13.13;100.00
23261;BME280;11799;47.740;-3.390;2023-11-19T03:07:50;101617.63;;;13.12;100.00
23261;BME280;11799;47.740;-3.390;2023-11-19T03:10:16;101625.69;;;13.11;100.00
23261;BME280;11799;47.740;-3.390;2023-11-19T03:12:43;101622.31;;;13.09;100.00
23261;BME280;11799;47.740;-3.390;2023-11-19T03:15:09;101620.75;;;13.06;100.00
23261;BME280;11799;47.740;-3.390;2023-11-19T03:17:44;101610.47;;;13.02;100.00
23261;BME280;11799;47.740;-3.390;2023-11-19T03:20:11;101619.91;;;13.06;100.00
23261;BME280;11799;47.740;-3.390;2023-11-19T03:22:43;101612.53;;;12.98;100.00
23261;BME280;11799;47.740;-3.390;2023-11-19T03:25:12;101612.13;;;12.92;100.00
23261;BME280;11799;47.740;-3.390;2023-11-19T03:27:38;101629.88;;;13.02;100.00
23261;BME280;11799;47.740;-3.390;2023-11-19T03:30:07;101624.69;;;13.01;100.00
23261;BME280;11799;47.740;-3.390;2023-11-19T03:32:35;101626.41;;;13.02;100.00
23261;BME280;11799;47.740;-3.390;2023-11-19T03:35:03;101626.63;;;12.99;100.00
23261;BME280;11799;47.740;-3.390;2023-11-19T03:37:34;101629.28;;;12.99;100.00
23261;BME280;11799;47.740;-3.390;2023-11-19T03:39:59;101629.16;;;13.00;100.00
23261;BME280;11799;47.740;-3.390;2023-11-19T03:42:29;101626.84;;;12.96;100.00
23261;BME280;11799;47.740;-3.390;2023-11-19T03:44:57;101623.13;;;12.98;100.00
23261;BME280;11799;47.740;-3.390;2023-11-19T03:47:23;101626.75;;;12.97;100.00
23261;BME280;11799;47.740;-3.390;2023-11-19T03:49:49;101621.22;;;13.00;100.00
23261;BME280;11799;47.740;-3.390;2023-11-19T03:52:16;101608.28;;;12.96;100.00
23261;BME280;11799;47.740;-3.390;2023-11-19T03:54:42;101608.19;;;12.97;100.00
23261;BME280;11799;47.740;-3.390;2023-11-19T03:57:08;101610.09;;;12.95;100.00
23261;BME280;11799;47.740;-3.390;2023-11-19T03:59:36;101616.25;;;12.96;100.00
23261;BME280;11799;47.740;-3.390;2023-11-19T04:02:02;101619.00;;;12.94;100.00
23261;BME280;11799;47.740;-3.390;2023-11-19T04:04:28;101612.13;;;12.92;100.00
23261;BME280;11799;47.740;-3.390;2023-11-19T04:06:55;101617.44;;;12.92;100.00
23261;BME280;11799;47.740;-3.390;2023-11-19T04:09:21;101616.25;;;12.96;100.00
23261;BME280;11799;47.740;-3.390;2023-11-19T04:11:46;101631.19;;;12.97;100.00
23261;BME280;11799;47.740;-3.390;2023-11-19T04:14:13;101590.31;;;12.88;100.00
23261;BME280;11799;47.740;-3.390;2023-11-19T04:16:39;101630.47;;;12.95;100.00
23261;BME280;11799;47.740;-3.390;2023-11-19T04:19:05;101626.84;;;12.96;100.00
23261;BME280;11799;47.740;-3.390;2023-11-19T04:21:32;101624.19;;;12.96;100.00
23261;BME280;11799;47.740;-3.390;2023-11-19T04:23:57;101635.88;;;12.93;100.00
23261;BME280;11799;47.740;-3.390;2023-11-19T04:26:23;101628.78;;;12.94;100.00
23261;BME280;11799;47.740;-3.390;2023-11-19T04:28:48;101640.94;;;12.96;100.00
23261;BME280;11799;47.740;-3.390;2023-11-19T04:31:15;101626.75;;;12.97;100.00
23261;BME280;11799;47.740;-3.390;2023-11-19T04:33:42;101618.66;;;12.99;100.00
23261;BME280;11799;47.740;-3.390;2023-11-19T04:36:09;101634.69;;;12.97;100.00
23261;BME280;11799;47.740;-3.390;2023-11-19T04:38:35;101629.38;;;12.97;100.00
23261;BME280;11799;47.740;-3.390;2023-11-19T04:41:00;101628.31;;;13.00;100.00
23261;BME280;11799;47.740;-3.390;2023-11-19T04:43:26;101639.16;;;12.97;100.00
23261;BME280;11799;47.740;-3.390;2023-11-19T04:45:51;101635.31;;;13.01;100.00
23261;BME280;11799;47.740;-3.390;2023-11-19T04:48:17;101638.06;;;12.99;100.00
23261;BME280;11799;47.740;-3.390;2023-11-19T04:50:43;101643.88;;;13.04;100.00
23261;BME280;11799;47.740;-3.390;2023-11-19T04:53:08;101634.00;;;13.06;100.00
23261;BME280;11799;47.740;-3.390;2023-11-19T04:55:34;101643.66;;;13.07;100.00
23261;BME280;11799;47.740;-3.390;2023-11-19T04:57:59;101642.81;;;13.07;100.00
23261;BME280;11799;47.740;-3.390;2023-11-19T05:00:25;101641.13;;;13.06;100.00
23261;BME280;11799;47.740;-3.390;2023-11-19T05:02:51;101649.19;;;13.04;100.00
23261;BME280;11799;47.740;-3.390;2023-11-19T05:05:17;101656.41;;;13.02;100.00
23261;BME280;11799;47.740;-3.390;2023-11-19T05:07:43;101651.94;;;13.03;100.00
23261;BME280;11799;47.740;-3.390;2023-11-19T05:10:08;101653.03;;;13.00;100.00
23261;BME280;11799;47.740;-3.390;2023-11-19T05:12:34;101646.66;;;13.03;100.00
23261;BME280;11799;47.740;-3.390;2023-11-19T05:14:59;101655.66;;;13.00;100.00
23261;BME280;11799;47.740;-3.390;2023-11-19T05:17:25;101659.28;;;12.99;100.00
23261;BME280;11799;47.740;-3.390;2023-11-19T05:19:51;101664.94;;;12.95;100.00
23261;BME280;11799;47.740;-3.390;2023-11-19T05:22:17;101660.69;;;12.92;100.00
23261;BME280;11799;47.740;-3.390;2023-11-19T05:24:42;101666.84;;;12.93;100.00
23261;BME280;11799;47.740;-3.390;2023-11-19T05:27:08;101663.13;;;12.95;100.00
23261;BME280;11799;47.740;-3.390;2023-11-19T05:29:34;101668.66;;;12.92;100.00
23261;BME280;11799;47.740;-3.390;2023-11-19T05:31:59;101669.16;;;12.97;100.00
23261;BME280;11799;47.740;-3.390;2023-11-19T05:34:25;101660.59;;;12.94;100.00
23261;BME280;11799;47.740;-3.390;2023-11-19T05:36:51;101664.69;;;12.98;100.00
23261;BME280;11799;47.740;-3.390;2023-11-19T05:39:17;101661.31;;;12.96;100.00
23261;BME280;11799;47.740;-3.390;2023-11-19T05:41:44;101667.47;;;12.96;100.00
23261;BME280;11799;47.740;-3.390;2023-11-19T05:44:09;101664.09;;;12.94;100.00
23261;BME280;11799;47.740;-3.390;2023-11-19T05:46:35;101664.19;;;12.93;100.00
23261;BME280;11799;47.740;-3.390;2023-11-19T05:49:05;101665.25;;;12.90;100.00
23261;BME280;11799;47.740;-3.390;2023-11-19T05:51:31;101650.03;;;12.81;100.00
23261;BME280;11799;47.740;-3.390;2023-11-19T05:53:56;101672.16;;;12.93;100.00
23261;BME280;11799;47.740;-3.390;2023-11-19T05:56:23;101654.78;;;12.88;100.00
23261;BME280;11799;47.740;-3.390;2023-11-19T05:58:48;101662.38;;;12.93;100.00
23261;BME280;11799;47.740;-3.390;2023-11-19T06:01:14;101654.56;;;12.92;100.00
23261;BME280;11799;47.740;-3.390;2023-11-19T06:03:40;101642.47;;;12.87;100.00
23261;BME280;11799;47.740;-3.390;2023-11-19T06:06:08;101651.41;;;12.86;100.00
23261;BME280;11799;47.740;-3.390;2023-11-19T06:08:34;101655.13;;;12.84;100.00
23261;BME280;11799;47.740;-3.390;2023-11-19T06:10:59;101655.56;;;12.78;100.00
23261;BME280;11799;47.740;-3.390;2023-11-19T06:13:26;101658.00;;;12.81;100.00
23261;BME280;11799;47.740;-3.390;2023-11-19T06:15:52;101661.59;;;12.80;100.00
23261;BME280;11799;47.740;-3.390;2023-11-19T06:18:18;101660.03;;;12.77;100.00
23261;BME280;11799;47.740;-3.390;2023-11-19T06:20:45;101665.78;;;12.71;100.00
23261;BME280;11799;47.740;-3.390;2023-11-19T06:23:10;101663.63;;;12.76;100.00
23261;BME280;11799;47.740;-3.390;2023-11-19T06:25:36;101657.00;;;12.71;100.00
23261;BME280;11799;47.740;-3.390;2023-11-19T06:28:02;101656.00;;;12.72;100.00
23261;BME280;11799;47.740;-3.390;2023-11-19T06:30:28;101658.56;;;12.73;100.00
23261;BME280;11799;47.740;-3.390;2023-11-19T06:32:55;101661.31;;;12.72;100.00
23261;BME280;11799;47.740;-3.390;2023-11-19T06:35:20;101650.97;;;12.69;100.00
23261;BME280;11799;47.740;-3.390;2023-11-19T06:37:46;101654.09;;;12.74;100.00
23261;BME280;11799;47.740;-3.390;2023-11-19T06:40:11;101654.94;;;12.74;100.00
23261;BME280;11799;47.740;-3.390;2023-11-19T06:42:37;101652.41;;;12.73;100.00
23261;BME280;11799;47.740;-3.390;2023-11-19T06:45:04;101643.13;;;12.67;100.00
23261;BME280;11799;47.740;-3.390;2023-11-19T06:47:29;101659.28;;;12.75;100.00
23261;BME280;11799;47.740;-3.390;2023-11-19T06:49:55;101667.34;;;12.74;100.00
23261;BME280;11799;47.740;-3.390;2023-11-19T06:52:21;101671.69;;;12.75;100.00
23261;BME280;11799;47.740;-3.390;2023-11-19T06:54:47;101648.88;;;12.61;100.00
23261;BME280;11799;47.740;-3.390;2023-11-19T06:57:13;101670.84;;;12.74;100.00
23261;BME280;11799;47.740;-3.390;2023-11-19T06:59:39;101673.88;;;12.70;100.00
23261;BME280;11799;47.740;-3.390;2023-11-19T07:02:05;101683.50;;;12.71;100.00
23261;BME280;11799;47.740;-3.390;2023-11-19T07:04:31;101685.41;;;12.69;100.00
23261;BME280;11799;47.740;-3.390;2023-11-19T07:06:58;101693.69;;;12.64;100.00
23261;BME280;11799;47.740;-3.390;2023-11-19T07:09:26;101681.31;;;12.65;100.00
23261;BME280;11799;47.740;-3.390;2023-11-19T07:11:52;101684.78;;;12.65;100.00
23261;BME280;11799;47.740;-3.390;2023-11-19T07:14:18;101689.25;;;12.65;100.00
23261;BME280;11799;47.740;-3.390;2023-11-19T07:16:44;101652.84;;;12.43;100.00
23261;BME280;11799;47.740;-3.390;2023-11-19T07:19:11;101685.53;;;12.67;100.00
23261;BME280;11799;47.740;-3.390;2023-11-19T07:21:40;101667.53;;;12.60;100.00
23261;BME280;11799;47.740;-3.390;2023-11-19T07:24:12;101682.78;;;12.69;100.00
23261;BME280;11799;47.740;-3.390;2023-11-19T07:26:46;101681.31;;;12.65;100.00
23261;BME280;11799;47.740;-3.390;2023-11-19T07:29:13;101687.22;;;12.68;100.00
23261;BME280;11799;47.740;-3.390;2023-11-19T07:31:38;101694.31;;;12.68;100.00
23261;BME280;11799;47.740;-3.390;2023-11-19T07:34:04;101686.72;;;12.63;100.00
23261;BME280;11799;47.740;-3.390;2023-11-19T07:36:32;101682.25;;;12.64;100.00
23261;BME280;11799;47.740;-3.390;2023-11-19T07:38:58;101684.78;;;12.65;100.00
23261;BME280;11799;47.740;-3.390;2023-11-19T07:41:24;101693.13;;;12.72;100.00
23261;BME280;11799;47.740;-3.390;2023-11-19T07:43:50;101684.47;;;12.70;100.00
23261;BME280;11799;47.740;-3.390;2023-11-19T07:46:17;101698.19;;;12.75;100.00
23261;BME280;11799;47.740;-3.390;2023-11-19T07:48:45;101690.88;;;12.78;100.00
23261;BME280;11799;47.740;-3.390;2023-11-19T07:51:13;101675.81;;;12.79;100.00
23261;BME280;11799;47.740;-3.390;2023-11-19T07:53:39;101693.41;;;12.80;100.00
23261;BME280;11799;47.740;-3.390;2023-11-19T07:56:06;101687.38;;;12.78;100.00
23261;BME280;11799;47.740;-3.390;2023-11-19T07:58:33;101676.63;;;12.68;100.00
23261;BME280;11799;47.740;-3.390;2023-11-19T08:00:59;101696.28;;;12.77;100.00
23261;BME280;11799;47.740;-3.390;2023-11-19T08:03:24;101697.97;;;12.78;100.00
23261;BME280;11799;47.740;-3.390;2023-11-19T08:05:50;101694.69;;;12.74;100.00
23261;BME280;11799;47.740;-3.390;2023-11-19T08:08:16;101697.13;;;12.77;100.00
23261;BME280;11799;47.740;-3.390;2023-11-19T08:10:42;101702.75;;;12.73;100.00
23261;BME280;11799;47.740;-3.390;2023-11-19T08:13:08;101704.47;;;12.74;100.00
23261;BME280;11799;47.740;-3.390;2023-11-19T08:15:34;101707.84;;;12.76;100.00
23261;BME280;11799;47.740;-3.390;2023-11-19T08:17:59;101709.53;;;12.77;100.00
23261;BME280;11799;47.740;-3.390;2023-11-19T08:20:25;101711.97;;;12.80;100.00
23261;BME280;11799;47.740;-3.390;2023-11-19T08:22:50;101716.94;;;12.84;100.00
23261;BME280;11799;47.740;-3.390;2023-11-19T08:25:16;101718.50;;;12.87;100.00
23261;BME280;11799;47.740;-3.390;2023-11-19T08:27:41;101732.50;;;12.89;100.00
23261;BME280;11799;47.740;-3.390;2023-11-19T08:30:08;101733.47;;;12.88;100.00
23261;BME280;11799;47.740;-3.390;2023-11-19T08:32:34;101731.66;;;12.88;100.00
23261;BME280;11799;47.740;-3.390;2023-11-19T08:35:00;101728.59;;;12.82;100.00
23261;BME280;11799;47.740;-3.390;2023-11-19T08:37:25;101733.00;;;12.94;100.00
23261;BME280;11799;47.740;-3.390;2023-11-19T08:39:51;101731.09;;;12.96;100.00
23261;BME280;11799;47.740;-3.390;2023-11-19T08:42:17;101736.41;;;12.96;100.00
23261;BME280;11799;47.740;-3.390;2023-11-19T08:44:43;101725.06;;;12.94;100.00
23261;BME280;11799;47.740;-3.390;2023-11-19T08:47:11;101738.09;;;12.97;100.00
23261;BME280;11799;47.740;-3.390;2023-11-19T08:49:36;101729.69;;;13.03;100.00
23261;BME280;11799;47.740;-3.390;2023-11-19T08:52:02;101735.72;;;13.05;100.00
23261;BME280;11799;47.740;-3.390;2023-11-19T08:54:27;101743.34;;;13.10;100.00
23261;BME280;11799;47.740;-3.390;2023-11-19T08:56:53;101736.00;;;13.13;100.00
23261;BME280;11799;47.740;-3.390;2023-11-19T08:59:18;101738.56;;;13.15;100.00
23261;BME280;11799;47.740;-3.390;2023-11-19T09:01:44;101732.41;;;13.14;100.00
23261;BME280;11799;47.740;-3.390;2023-11-19T09:04:10;101728.06;;;13.13;100.00
23261;BME280;11799;47.740;-3.390;2023-11-19T09:06:36;101731.97;;;13.20;100.00
23261;BME280;11799;47.740;-3.390;2023-11-19T09:09:01;101733.31;;;13.26;100.00
23261;BME280;11799;47.740;-3.390;2023-11-19T09:11:28;101735.59;;;13.31;100.00
23261;BME280;11799;47.740;-3.390;2023-11-19T09:13:54;101734.31;;;13.36;100.00
23261;BME280;11799;47.740;-3.390;2023-11-19T09:16:20;101729.38;;;13.43;100.00
23261;BME280;11799;47.740;-3.390;2023-11-19T09:18:45;101735.31;;;13.46;100.00
23261;BME280;11799;47.740;-3.390;2023-11-19T09:21:11;101734.00;;;13.52;100.00
23261;BME280;11799;47.740;-3.390;2023-11-19T09:23:37;101730.84;;;13.47;100.00
23261;BME280;11799;47.740;-3.390;2023-11-19T09:26:10;101732.03;;;13.43;100.00
23261;BME280;11799;47.740;-3.390;2023-11-19T09:28:36;101747.22;;;13.41;100.00
23261;BME280;11799;47.740;-3.390;2023-11-19T09:31:01;101738.16;;;13.32;100.00
23261;BME280;11799;47.740;-3.390;2023-11-19T09:33:30;101743.00;;;13.38;100.00
23261;BME280;11799;47.740;-3.390;2023-11-19T09:35:56;101746.84;;;13.34;100.00
23261;BME280;11799;47.740;-3.390;2023-11-19T09:38:21;101751.41;;;13.32;100.00
23261;BME280;11799;47.740;-3.390;2023-11-19T09:40:47;101748.53;;;13.35;100.00
23261;BME280;11799;47.740;-3.390;2023-11-19T09:43:15;101749.50;;;13.34;100.00
23261;BME280;11799;47.740;-3.390;2023-11-19T09:45:48;101730.91;;;13.34;100.00
23261;BME280;11799;47.740;-3.390;2023-11-19T09:48:18;101754.72;;;13.47;100.00
23261;BME280;11799;47.740;-3.390;2023-11-19T09:50:46;101760.88;;;13.47;100.00
23261;BME280;11799;47.740;-3.390;2023-11-19T09:53:12;101773.91;;;13.50;100.00
23261;BME280;11799;47.740;-3.390;2023-11-19T09:55:38;101768.66;;;13.62;100.00
23261;BME280;11799;47.740;-3.390;2023-11-19T09:58:03;101775.88;;;13.60;100.00
23261;BME280;11799;47.740;-3.390;2023-11-19T10:00:30;101775.19;;;13.69;100.00
23261;BME280;11799;47.740;-3.390;2023-11-19T10:02:56;101780.16;;;13.73;100.00
23261;BME280;11799;47.740;-3.390;2023-11-19T10:05:23;101775.34;;;13.78;100.00
23261;BME280;11799;47.740;-3.390;2023-11-19T10:07:50;101773.41;;;13.80;100.00
23261;BME280;11799;47.740;-3.390;2023-11-19T10:10:15;101768.97;;;13.81;100.00
23261;BME280;11799;47.740;-3.390;2023-11-19T10:12:45;101762.91;;;13.79;100.00
23261;BME280;11799;47.740;-3.390;2023-11-19T10:15:20;101762.91;;;13.79;100.00
23261;BME280;11799;47.740;-3.390;2023-11-19T10:17:46;101771.84;;;13.89;100.00
23261;BME280;11799;47.740;-3.390;2023-11-19T10:20:12;101763.53;;;13.82;100.00
23261;BME280;11799;47.740;-3.390;2023-11-19T10:22:37;101767.75;;;13.85;100.00
23261;BME280;11799;47.740;-3.390;2023-11-19T10:25:04;101771.00;;;13.88;100.00
23261;BME280;11799;47.740;-3.390;2023-11-19T10:27:30;101762.81;;;13.92;100.00
23261;BME280;11799;47.740;-3.390;2023-11-19T10:29:59;101781.66;;;14.00;100.00
23261;BME280;11799;47.740;-3.390;2023-11-19T10:32:25;101789.72;;;13.98;100.00
23261;BME280;11799;47.740;-3.390;2023-11-19T10:34:50;101770.66;;;14.04;100.00
23261;BME280;11799;47.740;-3.390;2023-11-19T10:37:28;101772.13;;;14.08;100.00
23261;BME280;11799;47.740;-3.390;2023-11-19T10:39:57;101776.59;;;14.08;100.00
23261;BME280;11799;47.740;-3.390;2023-11-19T10:42:23;101768.50;;;14.09;100.00
23261;BME280;11799;47.740;-3.390;2023-11-19T10:44:49;101773.22;;;14.06;100.00
23261;BME280;11799;47.740;-3.390;2023-11-19T10:47:15;101762.22;;;14.10;100.00
23261;BME280;11799;47.740;-3.390;2023-11-19T10:49:44;101766.69;;;14.10;100.00
23261;BME280;11799;47.740;-3.390;2023-11-19T10:52:11;101746.75;;;14.04;100.00
23261;BME280;11799;47.740;-3.390;2023-11-19T10:54:42;101762.47;;;14.18;100.00
23261;BME280;11799;47.740;-3.390;2023-11-19T10:57:10;101758.00;;;14.19;100.00
23261;BME280;11799;47.740;-3.390;2023-11-19T10:59:38;101758.75;;;14.21;100.00
23261;BME280;11799;47.740;-3.390;2023-11-19T11:02:07;101761.75;;;14.28;100.00
23261;BME280;11799;47.740;-3.390;2023-11-19T11:04:39;101758.38;;;14.37;100.00
23261;BME280;11799;47.740;-3.390;2023-11-19T11:07:05;101767.22;;;14.37;100.00
23261;BME280;11799;47.740;-3.390;2023-11-19T11:09:31;101757.31;;;14.39;100.00
23261;BME280;11799;47.740;-3.390;2023-11-19T11:11:58;101749.69;;;14.35;100.00
23261;BME280;11799;47.740;-3.390;2023-11-19T11:14:25;101755.84;;;14.35;100.00
23261;BME280;11799;47.740;-3.390;2023-11-19T11:16:53;101751.38;;;14.36;100.00
23261;BME280;11799;47.740;-3.390;2023-11-19T11:19:18;101749.13;;;14.42;100.00
23261;BME280;11799;47.740;-3.390;2023-11-19T11:21:51;101758.63;;;14.45;100.00
23261;BME280;11799;47.740;-3.390;2023-11-19T11:27:16;101759.63;;;14.44;100.00
23261;BME280;11799;47.740;-3.390;2023-11-19T11:32:59;101764.66;;;14.47;100.00
23261;BME280;11799;47.740;-3.390;2023-11-19T11:38:14;101762.63;;;14.50;100.00
23261;BME280;11799;47.740;-3.390;2023-11-19T11:40:40;101756.97;;;14.44;100.00
23261;BME280;11799;47.740;-3.390;2023-11-19T11:49:06;101745.47;;;14.54;100.00
23261;BME280;11799;47.740;-3.390;2023-11-19T11:54:30;101742.81;;;14.54;100.00
23261;BME280;11799;47.740;-3.390;2023-11-19T11:57:12;101748.97;;;14.55;100.00
23261;BME280;11799;47.740;-3.390;2023-11-19T12:02:11;101742.94;;;14.53;100.00
23261;BME280;11799;47.740;-3.390;2023-11-19T12:04:38;101743.78;;;14.53;100.00
23261;BME280;11799;47.740;-3.390;2023-11-19T12:07:23;101746.06;;;14.47;100.00
23261;BME280;11799;47.740;-3.390;2023-11-19T12:10:12;101751.13;;;14.50;100.00
23261;BME280;11799;47.740;-3.390;2023-11-19T12:12:37;101740.75;;;14.47;100.00
23261;BME280;11799;47.740;-3.390;2023-11-19T12:15:09;101729.16;;;14.48;100.00
23261;BME280;11799;47.740;-3.390;2023-11-19T12:17:51;101740.50;;;14.50;100.00
23261;BME280;11799;47.740;-3.390;2023-11-19T12:20:23;101747.88;;;14.46;100.00
23261;BME280;11799;47.740;-3.390;2023-11-19T12:22:49;101747.53;;;14.40;100.00
23261;BME280;11799;47.740;-3.390;2023-11-19T12:25:17;101735.19;;;14.39;100.00
23261;BME280;11799;47.740;-3.390;2023-11-19T12:27:47;101737.84;;;14.39;100.00
23261;BME280;11799;47.740;-3.390;2023-11-19T12:30:16;101734.59;;;14.35;100.00
23261;BME280;11799;47.740;-3.390;2023-11-19T12:32:43;101734.84;;;14.32;100.00
23261;BME280;11799;47.740;-3.390;2023-11-19T12:35:10;101732.31;;;14.31;100.00
23261;BME280;11799;47.740;-3.390;2023-11-19T12:37:42;101733.75;;;14.35;100.00
23261;BME280;11799;47.740;-3.390;2023-11-19T12:40:22;101726.25;;;14.29;100.00
23261;BME280;11799;47.740;-3.390;2023-11-19T12:42:49;101738.69;;;14.28;100.00
23261;BME280;11799;47.740;-3.390;2023-11-19T12:45:15;101735.19;;;14.28;100.00
23261;BME280;11799;47.740;-3.390;2023-11-19T12:47:45;101726.75;;;14.34;100.00
23261;BME280;11799;47.740;-3.390;2023-11-19T12:50:13;101737.63;;;14.31;100.00